BME weather

Broome International Airport
Broome, Western Australia, Australia

Public forecast

Using degrees Celsius for public forecast. Weather courtesy of forecast.io.

METAR (pilot weather report)

Retrieved 2018/05/21 18:30 UTC (0 seconds ago):

YBRM 211830Z AUTO 12006KT 9999 // NCD 20/11 Q1015 RF00.0/000.0

TAF (pilot weather forecast)

Retrieved 2018/05/21 18:38 UTC (0 seconds ago):

TAF YBRM 211701Z 2118/2218 10014KT CAVOK FM220100 09017G27KT CAVOK FM220700 10010KT CAVOK